Baudette International Airport
KBDE : now visible

Airfield :











YOU CAN JOIN US ON...

 
LOGIN :

Register | Disclaimer

   EN    FR    IT 

 









Legend :    VFR   Marginal VFR   IFR   Intensive IFR   Very Intensive IFR
Visi :
Ceiling :
>= 8 km
>= 3000ft
5 to 8 km
1000 to 3000 ft
1500m to 5 km
500 to 1000 ft
800 to 1500m
200 to 500 ft
< 800m
< 200 ft
Symbols :   Thunderstorms  Fog  Heavy snow  Heavy precipitations  Wind > 20 kt






- Airport Elevation : 1086 ft


KBDE - Baudette International

CURRENT METAR :
  • 192253Z AUTO 33003KT 10SM SCT021 OVC047 01/M01 A2982 RMK AO2 SLP111 T00111011

EXPIRED METARs :
  • 192216Z AUTO 34005KT 10SM SCT020 OVC048 01/M01 A2980 RMK AO2 T00111011
  • 192153Z AUTO 34007KT 10SM BKN017 OVC047 02/M01 A2980 RMK AO2 SLP105 T00171011
  • 192053Z AUTO 33006KT 10SM BKN018 OVC023 02/M01 A2978 RMK AO2 SLP099 T00221006 53016
  • 192031Z AUTO 30008KT 10SM OVC018 02/00 A2978 RMK AO2 T00220000
  • 191953Z AUTO 28005KT 10SM OVC014 03/01 A2976 RMK AO2 SLP092 T00280006

TAF N/A



MET'MAP, your aeronautical weather chart ! - Copyright ORBIFLY December 2007 - Disclaimer

ORBIFLY MET'MAP TEAM :

Programming & Development : Alexandra Zaïnal
Concept & Development : Baudouin d'Aumeries
Co-Development & Prog : Marc-Olivier Méhu
Technical & hardware support : Manuel Goepfert

Contact : metmap@orbifly.com




SOURCES & CREDITS :

   NOAA       Earth
Advisory